sensor_id;sensor_type;location;lat;lon;timestamp;P1;durP1;ratioP1;P2;durP2;ratioP2
53108;SDS011;39007;53.090;6.074;2023-06-26T00:01:27;10.10;;;7.85;;
53108;SDS011;39007;53.090;6.074;2023-06-26T00:04:05;10.02;;;7.28;;
53108;SDS011;39007;53.090;6.074;2023-06-26T00:06:31;11.10;;;7.80;;
53108;SDS011;39007;53.090;6.074;2023-06-26T00:08:57;10.13;;;7.75;;
53108;SDS011;39007;53.090;6.074;2023-06-26T00:11:24;9.35;;;7.47;;
53108;SDS011;39007;53.090;6.074;2023-06-26T00:13:52;11.60;;;7.82;;
53108;SDS011;39007;53.090;6.074;2023-06-26T00:16:18;10.27;;;7.68;;
53108;SDS011;39007;53.090;6.074;2023-06-26T00:18:44;8.63;;;7.43;;
53108;SDS011;39007;53.090;6.074;2023-06-26T00:21:10;10.85;;;7.72;;
53108;SDS011;39007;53.090;6.074;2023-06-26T00:23:36;13.18;;;7.78;;
53108;SDS011;39007;53.090;6.074;2023-06-26T00:26:04;10.77;;;7.90;;
53108;SDS011;39007;53.090;6.074;2023-06-26T00:28:30;10.85;;;8.63;;
53108;SDS011;39007;53.090;6.074;2023-06-26T00:30:56;9.05;;;7.55;;
53108;SDS011;39007;53.090;6.074;2023-06-26T00:33:22;9.63;;;7.38;;
53108;SDS011;39007;53.090;6.074;2023-06-26T00:35:48;9.77;;;7.95;;
53108;SDS011;39007;53.090;6.074;2023-06-26T00:38:14;9.90;;;7.70;;
53108;SDS011;39007;53.090;6.074;2023-06-26T00:40:42;9.30;;;7.40;;
53108;SDS011;39007;53.090;6.074;2023-06-26T00:43:08;9.25;;;7.82;;
53108;SDS011;39007;53.090;6.074;2023-06-26T00:45:35;8.73;;;7.75;;
53108;SDS011;39007;53.090;6.074;2023-06-26T00:48:01;11.52;;;7.97;;
53108;SDS011;39007;53.090;6.074;2023-06-26T00:50:27;10.75;;;7.80;;
53108;SDS011;39007;53.090;6.074;2023-06-26T00:52:54;9.98;;;7.43;;
53108;SDS011;39007;53.090;6.074;2023-06-26T00:55:25;8.93;;;7.70;;
53108;SDS011;39007;53.090;6.074;2023-06-26T00:57:51;9.95;;;7.88;;
53108;SDS011;39007;53.090;6.074;2023-06-26T01:00:17;12.82;;;8.18;;
53108;SDS011;39007;53.090;6.074;2023-06-26T01:02:44;9.77;;;7.90;;
53108;SDS011;39007;53.090;6.074;2023-06-26T01:05:10;9.02;;;7.90;;
53108;SDS011;39007;53.090;6.074;2023-06-26T01:07:37;12.55;;;8.50;;
53108;SDS011;39007;53.090;6.074;2023-06-26T01:10:04;10.10;;;7.80;;
53108;SDS011;39007;53.090;6.074;2023-06-26T01:12:31;8.77;;;7.75;;
53108;SDS011;39007;53.090;6.074;2023-06-26T01:14:59;12.95;;;7.75;;
53108;SDS011;39007;53.090;6.074;2023-06-26T01:17:28;9.95;;;8.00;;
53108;SDS011;39007;53.090;6.074;2023-06-26T01:20:00;9.43;;;7.95;;
53108;SDS011;39007;53.090;6.074;2023-06-26T01:25:23;9.20;;;7.65;;
53108;SDS011;39007;53.090;6.074;2023-06-26T01:27:54;9.55;;;7.47;;
53108;SDS011;39007;53.090;6.074;2023-06-26T01:30:21;10.35;;;8.10;;
53108;SDS011;39007;53.090;6.074;2023-06-26T01:32:47;9.95;;;7.57;;
53108;SDS011;39007;53.090;6.074;2023-06-26T01:35:14;8.70;;;7.40;;
53108;SDS011;39007;53.090;6.074;2023-06-26T01:37:41;9.10;;;7.85;;
53108;SDS011;39007;53.090;6.074;2023-06-26T01:40:07;9.77;;;7.80;;
53108;SDS011;39007;53.090;6.074;2023-06-26T01:42:34;10.73;;;8.13;;
53108;SDS011;39007;53.090;6.074;2023-06-26T01:45:10;11.00;;;8.27;;
53108;SDS011;39007;53.090;6.074;2023-06-26T01:47:38;10.00;;;8.43;;
53108;SDS011;39007;53.090;6.074;2023-06-26T01:50:09;10.40;;;7.75;;
53108;SDS011;39007;53.090;6.074;2023-06-26T01:52:41;10.70;;;8.02;;
53108;SDS011;39007;53.090;6.074;2023-06-26T01:55:31;9.32;;;7.57;;
53108;SDS011;39007;53.090;6.074;2023-06-26T01:57:56;10.65;;;8.25;;
53108;SDS011;39007;53.090;6.074;2023-06-26T02:00:22;10.05;;;8.40;;
53108;SDS011;39007;53.090;6.074;2023-06-26T02:02:49;11.02;;;8.10;;
53108;SDS011;39007;53.090;6.074;2023-06-26T02:05:15;10.85;;;8.70;;
53108;SDS011;39007;53.090;6.074;2023-06-26T02:07:41;9.90;;;8.30;;
53108;SDS011;39007;53.090;6.074;2023-06-26T02:10:09;10.25;;;7.95;;
53108;SDS011;39007;53.090;6.074;2023-06-26T02:12:35;8.93;;;7.88;;
53108;SDS011;39007;53.090;6.074;2023-06-26T02:15:03;9.85;;;8.50;;
53108;SDS011;39007;53.090;6.074;2023-06-26T02:17:29;10.88;;;8.23;;
53108;SDS011;39007;53.090;6.074;2023-06-26T02:19:55;11.20;;;8.32;;
53108;SDS011;39007;53.090;6.074;2023-06-26T02:22:21;10.48;;;8.45;;
53108;SDS011;39007;53.090;6.074;2023-06-26T02:24:47;11.10;;;8.30;;
53108;SDS011;39007;53.090;6.074;2023-06-26T02:27:14;9.20;;;8.13;;
53108;SDS011;39007;53.090;6.074;2023-06-26T02:29:40;10.32;;;8.32;;
53108;SDS011;39007;53.090;6.074;2023-06-26T02:32:06;11.07;;;8.60;;
53108;SDS011;39007;53.090;6.074;2023-06-26T02:34:33;12.73;;;9.07;;
53108;SDS011;39007;53.090;6.074;2023-06-26T02:36:59;11.05;;;9.35;;
53108;SDS011;39007;53.090;6.074;2023-06-26T02:39:26;11.10;;;8.95;;
53108;SDS011;39007;53.090;6.074;2023-06-26T02:41:52;14.15;;;10.10;;
53108;SDS011;39007;53.090;6.074;2023-06-26T02:44:18;12.30;;;9.25;;
53108;SDS011;39007;53.090;6.074;2023-06-26T02:46:44;11.38;;;9.00;;
53108;SDS011;39007;53.090;6.074;2023-06-26T02:49:11;12.02;;;9.73;;
53108;SDS011;39007;53.090;6.074;2023-06-26T02:51:37;11.57;;;10.02;;
53108;SDS011;39007;53.090;6.074;2023-06-26T02:54:03;12.68;;;10.07;;
53108;SDS011;39007;53.090;6.074;2023-06-26T02:56:29;15.27;;;10.85;;
53108;SDS011;39007;53.090;6.074;2023-06-26T02:58:56;14.07;;;10.43;;
53108;SDS011;39007;53.090;6.074;2023-06-26T03:01:23;13.18;;;10.48;;
53108;SDS011;39007;53.090;6.074;2023-06-26T03:03:49;10.95;;;9.38;;
53108;SDS011;39007;53.090;6.074;2023-06-26T03:06:15;13.02;;;9.70;;
53108;SDS011;39007;53.090;6.074;2023-06-26T03:08:42;11.38;;;9.27;;
53108;SDS011;39007;53.090;6.074;2023-06-26T03:11:08;13.30;;;8.77;;
53108;SDS011;39007;53.090;6.074;2023-06-26T03:13:34;14.00;;;8.05;;
53108;SDS011;39007;53.090;6.074;2023-06-26T03:16:01;10.25;;;8.18;;
53108;SDS011;39007;53.090;6.074;2023-06-26T03:18:27;11.52;;;8.10;;
53108;SDS011;39007;53.090;6.074;2023-06-26T03:20:54;13.38;;;8.23;;
53108;SDS011;39007;53.090;6.074;2023-06-26T03:23:20;10.63;;;7.50;;
53108;SDS011;39007;53.090;6.074;2023-06-26T03:25:47;11.63;;;7.50;;
53108;SDS011;39007;53.090;6.074;2023-06-26T03:28:13;12.30;;;7.82;;
53108;SDS011;39007;53.090;6.074;2023-06-26T03:30:40;10.77;;;7.60;;
53108;SDS011;39007;53.090;6.074;2023-06-26T03:33:06;12.95;;;7.30;;
53108;SDS011;39007;53.090;6.074;2023-06-26T03:35:32;16.48;;;7.40;;
53108;SDS011;39007;53.090;6.074;2023-06-26T03:37:58;10.68;;;7.57;;
53108;SDS011;39007;53.090;6.074;2023-06-26T03:40:26;13.65;;;7.88;;
53108;SDS011;39007;53.090;6.074;2023-06-26T03:42:52;12.80;;;7.97;;
53108;SDS011;39007;53.090;6.074;2023-06-26T03:45:18;12.05;;;7.60;;
53108;SDS011;39007;53.090;6.074;2023-06-26T03:47:45;11.65;;;7.72;;
53108;SDS011;39007;53.090;6.074;2023-06-26T03:50:14;13.07;;;8.50;;
53108;SDS011;39007;53.090;6.074;2023-06-26T03:52:40;15.48;;;7.85;;
53108;SDS011;39007;53.090;6.074;2023-06-26T03:55:06;13.95;;;8.20;;
53108;SDS011;39007;53.090;6.074;2023-06-26T03:57:33;14.55;;;7.82;;
53108;SDS011;39007;53.090;6.074;2023-06-26T03:59:59;13.80;;;8.30;;
53108;SDS011;39007;53.090;6.074;2023-06-26T04:02:25;16.27;;;9.07;;
53108;SDS011;39007;53.090;6.074;2023-06-26T04:04:51;18.33;;;9.18;;
53108;SDS011;39007;53.090;6.074;2023-06-26T04:07:18;14.77;;;9.30;;
53108;SDS011;39007;53.090;6.074;2023-06-26T04:09:44;17.67;;;9.20;;
53108;SDS011;39007;53.090;6.074;2023-06-26T04:12:10;19.23;;;9.20;;
53108;SDS011;39007;53.090;6.074;2023-06-26T04:14:36;18.58;;;9.85;;
53108;SDS011;39007;53.090;6.074;2023-06-26T04:17:02;18.58;;;10.05;;
53108;SDS011;39007;53.090;6.074;2023-06-26T04:19:29;17.05;;;9.82;;
53108;SDS011;39007;53.090;6.074;2023-06-26T04:21:55;21.77;;;9.52;;
53108;SDS011;39007;53.090;6.074;2023-06-26T04:24:22;18.73;;;10.38;;
53108;SDS011;39007;53.090;6.074;2023-06-26T04:26:48;18.10;;;10.15;;
53108;SDS011;39007;53.090;6.074;2023-06-26T04:29:14;18.85;;;11.07;;
53108;SDS011;39007;53.090;6.074;2023-06-26T04:31:40;21.85;;;11.00;;
53108;SDS011;39007;53.090;6.074;2023-06-26T04:34:06;18.38;;;10.18;;
53108;SDS011;39007;53.090;6.074;2023-06-26T04:36:32;20.35;;;10.57;;
53108;SDS011;39007;53.090;6.074;2023-06-26T04:39:04;17.08;;;10.50;;
53108;SDS011;39007;53.090;6.074;2023-06-26T04:41:30;21.73;;;9.45;;
53108;SDS011;39007;53.090;6.074;2023-06-26T04:43:56;17.73;;;9.77;;
53108;SDS011;39007;53.090;6.074;2023-06-26T04:46:22;20.92;;;9.82;;
53108;SDS011;39007;53.090;6.074;2023-06-26T04:48:48;14.98;;;8.90;;
53108;SDS011;39007;53.090;6.074;2023-06-26T04:51:14;16.48;;;9.73;;
53108;SDS011;39007;53.090;6.074;2023-06-26T04:53:41;16.90;;;8.95;;
53108;SDS011;39007;53.090;6.074;2023-06-26T04:56:07;17.48;;;8.10;;
53108;SDS011;39007;53.090;6.074;2023-06-26T04:58:34;15.10;;;7.22;;
53108;SDS011;39007;53.090;6.074;2023-06-26T05:01:00;17.83;;;7.45;;
53108;SDS011;39007;53.090;6.074;2023-06-26T05:03:26;17.15;;;7.03;;
53108;SDS011;39007;53.090;6.074;2023-06-26T05:05:52;12.82;;;6.78;;
53108;SDS011;39007;53.090;6.074;2023-06-26T05:08:21;15.50;;;6.97;;
53108;SDS011;39007;53.090;6.074;2023-06-26T05:10:47;15.45;;;5.38;;
53108;SDS011;39007;53.090;6.074;2023-06-26T05:13:13;12.93;;;4.88;;
53108;SDS011;39007;53.090;6.074;2023-06-26T05:15:42;17.23;;;5.80;;
53108;SDS011;39007;53.090;6.074;2023-06-26T05:18:09;17.95;;;5.10;;
53108;SDS011;39007;53.090;6.074;2023-06-26T05:20:35;21.20;;;5.43;;
53108;SDS011;39007;53.090;6.074;2023-06-26T05:23:02;18.48;;;4.97;;
53108;SDS011;39007;53.090;6.074;2023-06-26T05:25:31;15.02;;;5.05;;
53108;SDS011;39007;53.090;6.074;2023-06-26T05:27:59;13.35;;;4.75;;
53108;SDS011;39007;53.090;6.074;2023-06-26T05:30:26;16.98;;;4.72;;
53108;SDS011;39007;53.090;6.074;2023-06-26T05:32:52;21.02;;;5.18;;
53108;SDS011;39007;53.090;6.074;2023-06-26T05:35:20;15.70;;;5.22;;
53108;SDS011;39007;53.090;6.074;2023-06-26T05:37:50;15.02;;;4.35;;
53108;SDS011;39007;53.090;6.074;2023-06-26T05:40:17;18.85;;;5.13;;
53108;SDS011;39007;53.090;6.074;2023-06-26T05:42:44;15.40;;;4.50;;
53108;SDS011;39007;53.090;6.074;2023-06-26T05:45:10;38.00;;;5.55;;
53108;SDS011;39007;53.090;6.074;2023-06-26T05:47:36;21.63;;;5.00;;
53108;SDS011;39007;53.090;6.074;2023-06-26T05:50:03;16.10;;;4.57;;
53108;SDS011;39007;53.090;6.074;2023-06-26T05:52:29;16.08;;;4.82;;
53108;SDS011;39007;53.090;6.074;2023-06-26T05:54:56;13.05;;;4.22;;
53108;SDS011;39007;53.090;6.074;2023-06-26T05:57:26;18.90;;;4.72;;
53108;SDS011;39007;53.090;6.074;2023-06-26T05:59:53;14.68;;;4.22;;
53108;SDS011;39007;53.090;6.074;2023-06-26T06:02:19;13.85;;;4.35;;
53108;SDS011;39007;53.090;6.074;2023-06-26T06:04:45;18.60;;;4.30;;
53108;SDS011;39007;53.090;6.074;2023-06-26T06:07:12;13.68;;;4.43;;
53108;SDS011;39007;53.090;6.074;2023-06-26T06:09:38;18.00;;;4.28;;
53108;SDS011;39007;53.090;6.074;2023-06-26T06:12:05;12.25;;;3.90;;
53108;SDS011;39007;53.090;6.074;2023-06-26T06:14:34;17.73;;;4.45;;
53108;SDS011;39007;53.090;6.074;2023-06-26T06:17:01;14.55;;;4.03;;
53108;SDS011;39007;53.090;6.074;2023-06-26T06:19:27;12.50;;;3.97;;
53108;SDS011;39007;53.090;6.074;2023-06-26T06:21:53;14.63;;;3.88;;
53108;SDS011;39007;53.090;6.074;2023-06-26T06:24:19;10.77;;;3.35;;
53108;SDS011;39007;53.090;6.074;2023-06-26T06:26:45;11.40;;;3.63;;
53108;SDS011;39007;53.090;6.074;2023-06-26T06:29:12;10.52;;;3.08;;
53108;SDS011;39007;53.090;6.074;2023-06-26T06:31:38;12.23;;;3.28;;
53108;SDS011;39007;53.090;6.074;2023-06-26T06:34:04;12.77;;;3.17;;
53108;SDS011;39007;53.090;6.074;2023-06-26T06:36:30;10.85;;;3.10;;
53108;SDS011;39007;53.090;6.074;2023-06-26T06:38:56;11.63;;;3.20;;
53108;SDS011;39007;53.090;6.074;2023-06-26T06:41:22;13.80;;;3.60;;
53108;SDS011;39007;53.090;6.074;2023-06-26T06:43:48;11.02;;;3.45;;
53108;SDS011;39007;53.090;6.074;2023-06-26T06:46:14;9.10;;;3.03;;
53108;SDS011;39007;53.090;6.074;2023-06-26T06:48:40;16.13;;;3.35;;
53108;SDS011;39007;53.090;6.074;2023-06-26T06:51:07;9.70;;;3.13;;
53108;SDS011;39007;53.090;6.074;2023-06-26T06:53:33;14.75;;;3.85;;
53108;SDS011;39007;53.090;6.074;2023-06-26T06:55:59;11.15;;;3.30;;
53108;SDS011;39007;53.090;6.074;2023-06-26T06:58:25;9.07;;;3.25;;
53108;SDS011;39007;53.090;6.074;2023-06-26T07:00:51;11.77;;;2.97;;
53108;SDS011;39007;53.090;6.074;2023-06-26T07:03:17;13.82;;;3.08;;
53108;SDS011;39007;53.090;6.074;2023-06-26T07:05:43;13.55;;;3.03;;
53108;SDS011;39007;53.090;6.074;2023-06-26T07:08:09;12.68;;;3.05;;
53108;SDS011;39007;53.090;6.074;2023-06-26T07:10:36;7.72;;;2.45;;
53108;SDS011;39007;53.090;6.074;2023-06-26T07:13:02;8.10;;;2.60;;
53108;SDS011;39007;53.090;6.074;2023-06-26T07:15:28;10.02;;;2.53;;
53108;SDS011;39007;53.090;6.074;2023-06-26T07:17:54;8.30;;;2.60;;
53108;SDS011;39007;53.090;6.074;2023-06-26T07:20:20;5.80;;;2.42;;
53108;SDS011;39007;53.090;6.074;2023-06-26T07:22:46;7.30;;;2.30;;
53108;SDS011;39007;53.090;6.074;2023-06-26T07:25:12;8.65;;;2.20;;
53108;SDS011;39007;53.090;6.074;2023-06-26T07:27:39;7.35;;;2.60;;
53108;SDS011;39007;53.090;6.074;2023-06-26T07:30:06;11.15;;;2.53;;
53108;SDS011;39007;53.090;6.074;2023-06-26T07:32:35;6.93;;;2.40;;
53108;SDS011;39007;53.090;6.074;2023-06-26T07:35:02;7.10;;;2.40;;
53108;SDS011;39007;53.090;6.074;2023-06-26T07:37:28;9.13;;;2.53;;
53108;SDS011;39007;53.090;6.074;2023-06-26T07:39:54;5.85;;;2.10;;
53108;SDS011;39007;53.090;6.074;2023-06-26T07:42:20;7.43;;;2.03;;
53108;SDS011;39007;53.090;6.074;2023-06-26T07:44:47;11.65;;;2.60;;
53108;SDS011;39007;53.090;6.074;2023-06-26T07:47:13;9.05;;;2.28;;
53108;SDS011;39007;53.090;6.074;2023-06-26T07:49:39;5.88;;;2.13;;
53108;SDS011;39007;53.090;6.074;2023-06-26T07:52:05;6.88;;;2.50;;
53108;SDS011;39007;53.090;6.074;2023-06-26T07:54:31;8.43;;;2.50;;
53108;SDS011;39007;53.090;6.074;2023-06-26T07:57:01;6.45;;;2.63;;
53108;SDS011;39007;53.090;6.074;2023-06-26T07:59:28;7.78;;;2.50;;
53108;SDS011;39007;53.090;6.074;2023-06-26T08:01:55;5.57;;;2.00;;
53108;SDS011;39007;53.090;6.074;2023-06-26T08:04:23;6.57;;;2.50;;
53108;SDS011;39007;53.090;6.074;2023-06-26T08:06:51;6.60;;;2.70;;
53108;SDS011;39007;53.090;6.074;2023-06-26T08:09:18;8.38;;;2.75;;
53108;SDS011;39007;53.090;6.074;2023-06-26T08:11:44;10.05;;;2.83;;
53108;SDS011;39007;53.090;6.074;2023-06-26T08:14:10;6.80;;;2.30;;
53108;SDS011;39007;53.090;6.074;2023-06-26T08:16:40;6.07;;;2.45;;
53108;SDS011;39007;53.090;6.074;2023-06-26T08:19:06;6.93;;;2.60;;
53108;SDS011;39007;53.090;6.074;2023-06-26T08:21:32;7.63;;;2.78;;
53108;SDS011;39007;53.090;6.074;2023-06-26T08:23:58;6.40;;;2.30;;
53108;SDS011;39007;53.090;6.074;2023-06-26T08:26:24;9.05;;;2.95;;
53108;SDS011;39007;53.090;6.074;2023-06-26T08:28:50;9.60;;;2.90;;
53108;SDS011;39007;53.090;6.074;2023-06-26T08:31:17;7.82;;;2.72;;
53108;SDS011;39007;53.090;6.074;2023-06-26T08:33:43;7.50;;;2.63;;
53108;SDS011;39007;53.090;6.074;2023-06-26T08:36:09;8.18;;;2.85;;
53108;SDS011;39007;53.090;6.074;2023-06-26T08:38:35;9.23;;;3.00;;
53108;SDS011;39007;53.090;6.074;2023-06-26T08:41:01;7.20;;;2.50;;
53108;SDS011;39007;53.090;6.074;2023-06-26T08:43:28;6.38;;;2.85;;
53108;SDS011;39007;53.090;6.074;2023-06-26T08:45:54;6.65;;;2.40;;
53108;SDS011;39007;53.090;6.074;2023-06-26T08:48:20;7.82;;;2.92;;
53108;SDS011;39007;53.090;6.074;2023-06-26T08:50:48;8.93;;;3.10;;
53108;SDS011;39007;53.090;6.074;2023-06-26T08:55:41;10.27;;;2.53;;
53108;SDS011;39007;53.090;6.074;2023-06-26T08:58:07;8.05;;;2.78;;
53108;SDS011;39007;53.090;6.074;2023-06-26T09:00:33;7.85;;;2.70;;
53108;SDS011;39007;53.090;6.074;2023-06-26T09:02:59;9.93;;;3.05;;
53108;SDS011;39007;53.090;6.074;2023-06-26T09:05:26;9.57;;;3.30;;
53108;SDS011;39007;53.090;6.074;2023-06-26T09:07:52;6.80;;;3.03;;
53108;SDS011;39007;53.090;6.074;2023-06-26T09:10:21;8.32;;;3.35;;
53108;SDS011;39007;53.090;6.074;2023-06-26T09:12:47;8.70;;;3.00;;
53108;SDS011;39007;53.090;6.074;2023-06-26T09:15:19;10.57;;;3.42;;
53108;SDS011;39007;53.090;6.074;2023-06-26T09:17:47;11.55;;;3.60;;
53108;SDS011;39007;53.090;6.074;2023-06-26T09:20:14;10.70;;;3.30;;
53108;SDS011;39007;53.090;6.074;2023-06-26T09:22:41;7.85;;;3.30;;
53108;SDS011;39007;53.090;6.074;2023-06-26T09:25:08;7.78;;;2.95;;
53108;SDS011;39007;53.090;6.074;2023-06-26T09:27:35;9.00;;;3.65;;
53108;SDS011;39007;53.090;6.074;2023-06-26T09:30:04;8.35;;;2.85;;
53108;SDS011;39007;53.090;6.074;2023-06-26T09:32:35;7.47;;;2.78;;
53108;SDS011;39007;53.090;6.074;2023-06-26T09:35:04;10.55;;;3.10;;
53108;SDS011;39007;53.090;6.074;2023-06-26T09:37:30;6.25;;;2.80;;
53108;SDS011;39007;53.090;6.074;2023-06-26T09:39:56;8.80;;;3.47;;
53108;SDS011;39007;53.090;6.074;2023-06-26T09:42:23;7.38;;;2.95;;
53108;SDS011;39007;53.090;6.074;2023-06-26T09:44:49;6.13;;;2.55;;
53108;SDS011;39007;53.090;6.074;2023-06-26T09:47:16;9.52;;;3.08;;
53108;SDS011;39007;53.090;6.074;2023-06-26T09:49:43;6.68;;;3.20;;
53108;SDS011;39007;53.090;6.074;2023-06-26T09:52:09;10.82;;;3.40;;
53108;SDS011;39007;53.090;6.074;2023-06-26T09:54:35;8.65;;;2.70;;
53108;SDS011;39007;53.090;6.074;2023-06-26T09:57:34;7.15;;;2.83;;
53108;SDS011;39007;53.090;6.074;2023-06-26T09:59:54;7.25;;;2.85;;
53108;SDS011;39007;53.090;6.074;2023-06-26T10:02:20;7.25;;;3.10;;
53108;SDS011;39007;53.090;6.074;2023-06-26T10:04:46;8.20;;;2.95;;
53108;SDS011;39007;53.090;6.074;2023-06-26T10:07:12;8.77;;;3.20;;
53108;SDS011;39007;53.090;6.074;2023-06-26T10:09:42;9.70;;;3.60;;
53108;SDS011;39007;53.090;6.074;2023-06-26T10:12:14;10.95;;;3.03;;
53108;SDS011;39007;53.090;6.074;2023-06-26T10:17:10;10.98;;;2.90;;
53108;SDS011;39007;53.090;6.074;2023-06-26T10:19:37;8.20;;;2.50;;
53108;SDS011;39007;53.090;6.074;2023-06-26T10:22:04;7.85;;;2.67;;
53108;SDS011;39007;53.090;6.074;2023-06-26T10:24:31;9.43;;;2.78;;
53108;SDS011;39007;53.090;6.074;2023-06-26T10:27:01;5.97;;;2.28;;
53108;SDS011;39007;53.090;6.074;2023-06-26T10:29:28;15.45;;;3.13;;
53108;SDS011;39007;53.090;6.074;2023-06-26T10:31:55;10.32;;;2.83;;
53108;SDS011;39007;53.090;6.074;2023-06-26T10:34:22;10.45;;;2.50;;
53108;SDS011;39007;53.090;6.074;2023-06-26T10:36:58;14.32;;;3.10;;
53108;SDS011;39007;53.090;6.074;2023-06-26T10:39:25;8.85;;;2.53;;
53108;SDS011;39007;53.090;6.074;2023-06-26T10:41:51;9.18;;;2.50;;
53108;SDS011;39007;53.090;6.074;2023-06-26T10:44:20;6.80;;;2.42;;
53108;SDS011;39007;53.090;6.074;2023-06-26T10:49:19;13.18;;;2.53;;
53108;SDS011;39007;53.090;6.074;2023-06-26T10:51:49;11.75;;;2.40;;
53108;SDS011;39007;53.090;6.074;2023-06-26T10:54:19;8.70;;;2.25;;
53108;SDS011;39007;53.090;6.074;2023-06-26T10:56:54;9.80;;;2.70;;
53108;SDS011;39007;53.090;6.074;2023-06-26T10:59:24;7.32;;;2.15;;
53108;SDS011;39007;53.090;6.074;2023-06-26T11:01:57;7.90;;;1.95;;
53108;SDS011;39007;53.090;6.074;2023-06-26T11:04:37;11.60;;;2.20;;
53108;SDS011;39007;53.090;6.074;2023-06-26T11:07:22;9.30;;;2.30;;
53108;SDS011;39007;53.090;6.074;2023-06-26T11:09:58;9.50;;;2.78;;
53108;SDS011;39007;53.090;6.074;2023-06-26T11:12:40;8.10;;;2.33;;
53108;SDS011;39007;53.090;6.074;2023-06-26T11:15:17;7.07;;;2.10;;
53108;SDS011;39007;53.090;6.074;2023-06-26T11:17:44;9.88;;;2.10;;
53108;SDS011;39007;53.090;6.074;2023-06-26T11:20:11;10.48;;;2.50;;
53108;SDS011;39007;53.090;6.074;2023-06-26T11:22:39;7.55;;;2.50;;
53108;SDS011;39007;53.090;6.074;2023-06-26T11:25:05;6.18;;;1.83;;
53108;SDS011;39007;53.090;6.074;2023-06-26T11:30:04;9.90;;;2.20;;
53108;SDS011;39007;53.090;6.074;2023-06-26T11:32:31;7.43;;;2.13;;
53108;SDS011;39007;53.090;6.074;2023-06-26T11:35:00;8.43;;;2.17;;
53108;SDS011;39007;53.090;6.074;2023-06-26T11:37:26;11.48;;;2.20;;
53108;SDS011;39007;53.090;6.074;2023-06-26T11:39:52;7.90;;;2.13;;
53108;SDS011;39007;53.090;6.074;2023-06-26T11:42:19;7.47;;;2.17;;
53108;SDS011;39007;53.090;6.074;2023-06-26T11:44:46;7.03;;;2.00;;
53108;SDS011;39007;53.090;6.074;2023-06-26T11:47:15;9.35;;;2.35;;
53108;SDS011;39007;53.090;6.074;2023-06-26T11:49:42;11.13;;;2.53;;
53108;SDS011;39007;53.090;6.074;2023-06-26T11:52:08;8.68;;;2.58;;
53108;SDS011;39007;53.090;6.074;2023-06-26T11:54:34;8.38;;;2.20;;
53108;SDS011;39007;53.090;6.074;2023-06-26T11:57:00;10.57;;;2.90;;
53108;SDS011;39007;53.090;6.074;2023-06-26T11:59:36;10.15;;;2.38;;
53108;SDS011;39007;53.090;6.074;2023-06-26T12:04:32;7.68;;;2.25;;
53108;SDS011;39007;53.090;6.074;2023-06-26T12:07:00;6.43;;;2.20;;
53108;SDS011;39007;53.090;6.074;2023-06-26T12:09:29;12.20;;;2.70;;
53108;SDS011;39007;53.090;6.074;2023-06-26T12:11:55;8.75;;;2.33;;
53108;SDS011;39007;53.090;6.074;2023-06-26T12:14:23;10.50;;;2.30;;
53108;SDS011;39007;53.090;6.074;2023-06-26T12:16:50;9.35;;;2.25;;
53108;SDS011;39007;53.090;6.074;2023-06-26T12:19:16;7.45;;;2.30;;
53108;SDS011;39007;53.090;6.074;2023-06-26T12:21:46;8.43;;;2.05;;
53108;SDS011;39007;53.090;6.074;2023-06-26T12:24:14;7.68;;;2.35;;
53108;SDS011;39007;53.090;6.074;2023-06-26T12:26:44;7.72;;;2.60;;
53108;SDS011;39007;53.090;6.074;2023-06-26T12:29:14;6.93;;;2.13;;
53108;SDS011;39007;53.090;6.074;2023-06-26T12:31:42;9.20;;;2.00;;
53108;SDS011;39007;53.090;6.074;2023-06-26T12:34:12;11.10;;;2.50;;
53108;SDS011;39007;53.090;6.074;2023-06-26T12:36:45;10.57;;;2.40;;
53108;SDS011;39007;53.090;6.074;2023-06-26T12:39:14;7.90;;;2.28;;
53108;SDS011;39007;53.090;6.074;2023-06-26T12:42:23;10.57;;;2.20;;
53108;SDS011;39007;53.090;6.074;2023-06-26T12:44:30;10.27;;;2.38;;
53108;SDS011;39007;53.090;6.074;2023-06-26T12:47:01;9.25;;;2.50;;
53108;SDS011;39007;53.090;6.074;2023-06-26T12:49:31;9.75;;;2.70;;
53108;SDS011;39007;53.090;6.074;2023-06-26T12:51:58;10.15;;;2.45;;
53108;SDS011;39007;53.090;6.074;2023-06-26T12:54:24;8.77;;;2.33;;
53108;SDS011;39007;53.090;6.074;2023-06-26T12:56:51;8.98;;;2.20;;
53108;SDS011;39007;53.090;6.074;2023-06-26T12:59:17;10.43;;;2.50;;
53108;SDS011;39007;53.090;6.074;2023-06-26T13:01:43;8.90;;;2.35;;
53108;SDS011;39007;53.090;6.074;2023-06-26T13:04:09;10.25;;;2.45;;
53108;SDS011;39007;53.090;6.074;2023-06-26T13:06:36;8.88;;;2.53;;
53108;SDS011;39007;53.090;6.074;2023-06-26T13:09:02;13.00;;;2.83;;
53108;SDS011;39007;53.090;6.074;2023-06-26T13:11:29;7.15;;;2.00;;
53108;SDS011;39007;53.090;6.074;2023-06-26T13:13:56;11.88;;;2.65;;
53108;SDS011;39007;53.090;6.074;2023-06-26T13:16:22;12.32;;;3.90;;
53108;SDS011;39007;53.090;6.074;2023-06-26T13:18:48;8.60;;;2.22;;
53108;SDS011;39007;53.090;6.074;2023-06-26T13:21:14;8.68;;;2.38;;
53108;SDS011;39007;53.090;6.074;2023-06-26T13:23:41;7.38;;;2.47;;
53108;SDS011;39007;53.090;6.074;2023-06-26T13:26:07;7.90;;;2.33;;
53108;SDS011;39007;53.090;6.074;2023-06-26T13:28:33;6.60;;;2.00;;
53108;SDS011;39007;53.090;6.074;2023-06-26T13:31:00;9.18;;;2.10;;
53108;SDS011;39007;53.090;6.074;2023-06-26T13:33:26;8.60;;;2.08;;
53108;SDS011;39007;53.090;6.074;2023-06-26T13:35:52;6.75;;;2.00;;
53108;SDS011;39007;53.090;6.074;2023-06-26T13:38:22;5.70;;;1.98;;
53108;SDS011;39007;53.090;6.074;2023-06-26T13:40:51;10.75;;;1.92;;
53108;SDS011;39007;53.090;6.074;2023-06-26T13:43:18;10.15;;;1.98;;
53108;SDS011;39007;53.090;6.074;2023-06-26T13:45:44;11.70;;;2.25;;
53108;SDS011;39007;53.090;6.074;2023-06-26T13:48:10;7.10;;;2.17;;
53108;SDS011;39007;53.090;6.074;2023-06-26T13:50:36;9.80;;;2.30;;
53108;SDS011;39007;53.090;6.074;2023-06-26T13:53:02;9.75;;;2.30;;
53108;SDS011;39007;53.090;6.074;2023-06-26T13:55:28;8.27;;;2.13;;
53108;SDS011;39007;53.090;6.074;2023-06-26T13:57:55;10.85;;;2.20;;
53108;SDS011;39007;53.090;6.074;2023-06-26T14:00:22;10.57;;;2.53;;
53108;SDS011;39007;53.090;6.074;2023-06-26T14:02:48;13.02;;;2.67;;
53108;SDS011;39007;53.090;6.074;2023-06-26T14:05:14;9.13;;;2.30;;
53108;SDS011;39007;53.090;6.074;2023-06-26T14:07:43;12.13;;;2.25;;
53108;SDS011;39007;53.090;6.074;2023-06-26T14:10:09;8.75;;;2.40;;
53108;SDS011;39007;53.090;6.074;2023-06-26T14:12:35;9.15;;;2.10;;
53108;SDS011;39007;53.090;6.074;2023-06-26T14:15:02;7.75;;;2.05;;
53108;SDS011;39007;53.090;6.074;2023-06-26T14:17:28;8.45;;;2.22;;
53108;SDS011;39007;53.090;6.074;2023-06-26T14:19:54;8.27;;;1.90;;
53108;SDS011;39007;53.090;6.074;2023-06-26T14:22:20;7.03;;;2.20;;
53108;SDS011;39007;53.090;6.074;2023-06-26T14:24:47;6.85;;;2.20;;
53108;SDS011;39007;53.090;6.074;2023-06-26T14:27:14;11.10;;;2.03;;
53108;SDS011;39007;53.090;6.074;2023-06-26T14:29:40;6.85;;;2.00;;
53108;SDS011;39007;53.090;6.074;2023-06-26T14:32:06;7.95;;;2.15;;
53108;SDS011;39007;53.090;6.074;2023-06-26T14:34:32;8.07;;;2.03;;
53108;SDS011;39007;53.090;6.074;2023-06-26T14:36:59;9.13;;;2.53;;
53108;SDS011;39007;53.090;6.074;2023-06-26T14:39:25;13.93;;;2.50;;
53108;SDS011;39007;53.090;6.074;2023-06-26T14:41:51;9.43;;;2.25;;
53108;SDS011;39007;53.090;6.074;2023-06-26T14:44:17;10.25;;;2.30;;
53108;SDS011;39007;53.090;6.074;2023-06-26T14:46:43;7.53;;;2.03;;
53108;SDS011;39007;53.090;6.074;2023-06-26T14:49:09;8.10;;;2.40;;
53108;SDS011;39007;53.090;6.074;2023-06-26T14:51:35;8.60;;;2.30;;
53108;SDS011;39007;53.090;6.074;2023-06-26T14:54:03;12.18;;;2.55;;
53108;SDS011;39007;53.090;6.074;2023-06-26T14:56:29;11.40;;;2.28;;